createdAt,value
2022-11-24T04:08:55.477Z,9.57
2022-11-24T04:09:59.168Z,9.99
2022-11-24T04:11:02.740Z,9.21
2022-11-24T04:12:24.305Z,9.94
2022-11-24T04:13:27.884Z,10.02
2022-11-24T04:14:31.590Z,9.89
2022-11-24T04:15:35.265Z,10.52
2022-11-24T04:16:38.882Z,9.34
2022-11-24T04:17:42.929Z,8.84
2022-11-24T04:18:46.635Z,9.56
2022-11-24T04:19:50.318Z,10.48
2022-11-24T04:20:53.784Z,9.71
2022-11-24T04:21:57.374Z,9.39
2022-11-24T04:23:01.063Z,9.76
2022-11-24T04:24:04.505Z,9.86
2022-11-24T04:25:09.384Z,10.81
2022-11-24T04:26:13.278Z,10.30
2022-11-24T04:27:16.688Z,10.08
2022-11-24T04:28:20.189Z,9.93
2022-11-24T04:29:23.609Z,10.89
2022-11-24T04:30:28.527Z,10.68
2022-11-24T04:31:32.043Z,11.32
2022-11-24T04:33:46.494Z,11.97
2022-11-24T04:34:50.051Z,11.48
2022-11-24T04:35:53.755Z,12.41
2022-11-24T04:36:57.405Z,13.08
2022-11-24T04:38:03.753Z,13.92
2022-11-24T04:39:24.195Z,14.94
2022-11-24T04:40:13.345Z,13.71
2022-11-24T04:41:16.906Z,13.48
2022-11-24T04:42:20.581Z,12.25
2022-11-24T04:43:24.162Z,12.54
2022-11-24T04:44:27.728Z,11.62
2022-11-24T04:45:31.216Z,13.51
2022-11-24T04:46:34.901Z,11.67
2022-11-24T04:47:38.500Z,12.68
2022-11-24T04:48:42.093Z,12.34
2022-11-24T04:49:47.111Z,12.36
2022-11-24T04:50:50.997Z,12.19
2022-11-24T04:51:54.616Z,12.51
2022-11-24T04:52:58.134Z,11.89
2022-11-24T04:54:01.649Z,13.12
2022-11-24T04:55:05.671Z,13.04
2022-11-24T04:56:10.489Z,12.58
2022-11-24T04:57:19.035Z,12.85
2022-11-24T04:58:22.521Z,11.05
2022-11-24T04:59:26.013Z,11.60
2022-11-24T05:00:29.706Z,11.39
2022-11-24T05:01:33.544Z,11.36
2022-11-24T05:02:37.265Z,11.24
2022-11-24T05:03:40.739Z,11.76
2022-11-24T05:04:44.258Z,11.91
2022-11-24T05:05:47.816Z,11.82
2022-11-24T05:06:51.379Z,13.21
2022-11-24T05:07:55.046Z,15.91
2022-11-24T05:08:58.877Z,17.88
2022-11-24T05:10:20.561Z,18.65
2022-11-24T05:11:24.124Z,18.93
2022-11-24T05:12:29.725Z,18.57
2022-11-24T05:13:33.520Z,17.87
2022-11-24T05:14:37.025Z,19.12
2022-11-24T05:15:41.773Z,17.04
2022-11-24T05:16:45.527Z,14.65
2022-11-24T05:17:49.144Z,15.10
2022-11-24T05:18:52.641Z,15.09
2022-11-24T05:19:56.298Z,14.38
2022-11-24T05:20:59.981Z,12.62
2022-11-24T05:22:03.544Z,12.79
2022-11-24T05:23:08.236Z,11.92
2022-11-24T05:24:11.872Z,12.86
2022-11-24T05:25:15.359Z,13.09
2022-11-24T05:26:19.009Z,12.37
2022-11-24T05:27:22.446Z,11.76
2022-11-24T05:28:25.991Z,11.64
2022-11-24T05:29:29.518Z,12.33
2022-11-24T05:30:32.977Z,13.35
2022-11-24T05:31:36.449Z,12.46
2022-11-24T05:32:39.897Z,13.41
2022-11-24T05:33:43.646Z,12.44
2022-11-24T05:34:47.553Z,13.11
2022-11-24T05:35:51.259Z,13.58
2022-11-24T05:41:55.031Z,13.38
2022-11-24T05:42:58.488Z,13.41
2022-11-24T05:44:01.880Z,13.49
2022-11-24T05:45:06.048Z,13.12
2022-11-24T05:46:09.491Z,12.71
2022-11-24T05:47:13.056Z,13.08
2022-11-24T05:48:16.509Z,13.97
2022-11-24T05:49:19.867Z,12.54
2022-11-24T05:50:23.518Z,13.12
2022-11-24T05:51:26.940Z,13.59
2022-11-24T07:15:07.580Z,23.01
2022-11-24T07:16:20.410Z,18.93
2022-11-24T07:17:24.171Z,18.49
2022-11-24T07:18:27.631Z,18.57
2022-11-24T07:19:31.153Z,17.87
2022-11-24T07:20:35.130Z,17.71
2022-11-24T07:21:38.537Z,17.39
2022-11-24T07:22:42.075Z,17.00
2022-11-24T07:23:50.904Z,15.44
2022-11-24T07:24:54.585Z,16.94
2022-11-24T07:26:03.721Z,14.61
2022-11-24T07:27:03.807Z,14.92
2022-11-24T07:28:07.314Z,15.94
2022-11-24T07:29:10.710Z,13.29
2022-11-24T07:30:14.325Z,15.26
2022-11-24T07:31:19.803Z,14.73
2022-11-24T07:32:23.204Z,14.99
2022-11-24T07:33:26.584Z,14.34
2022-11-24T07:34:29.965Z,14.87
2022-11-24T07:35:33.343Z,15.63
2022-11-24T07:36:36.858Z,14.96
2022-11-24T07:37:40.342Z,13.88
2022-11-24T07:38:43.630Z,14.44
2022-11-24T07:39:47.026Z,13.40
2022-11-24T07:40:50.336Z,13.67
2022-11-24T07:41:53.813Z,14.53
2022-11-24T07:43:00.153Z,13.30
2022-11-24T07:44:03.895Z,13.75
2022-11-24T07:45:08.134Z,13.94
2022-11-24T07:46:13.976Z,12.78
2022-11-24T07:47:17.373Z,14.94
2022-11-24T07:48:20.742Z,14.38
2022-11-24T07:49:24.194Z,14.04
2022-11-24T07:50:27.578Z,13.31
2022-11-24T07:51:30.880Z,13.44
2022-11-24T07:52:34.354Z,13.36
2022-11-24T07:53:38.490Z,13.41
2022-11-24T07:54:41.834Z,12.96
2022-11-24T07:55:54.173Z,13.31
2022-11-24T07:56:57.586Z,14.32
2022-11-24T07:58:01.444Z,12.98
2022-11-24T07:59:04.910Z,13.82
2022-11-24T08:00:10.590Z,13.86
2022-11-24T08:01:16.228Z,14.54
2022-11-24T08:04:11.325Z,13.29
2022-11-24T08:05:15.123Z,13.32
2022-11-24T08:06:30.527Z,14.03
2022-11-24T08:07:24.481Z,13.70
2022-11-24T08:08:28.457Z,14.36
2022-11-24T08:09:31.930Z,14.84
2022-11-24T08:10:35.735Z,13.92
2022-11-24T08:11:39.375Z,14.14
2022-11-24T08:12:43.865Z,14.53
2022-11-24T08:13:47.672Z,14.81
2022-11-24T08:14:51.690Z,15.25
2022-11-24T08:15:55.224Z,14.09
2022-11-24T08:16:58.990Z,14.83
2022-11-24T08:18:02.562Z,15.10
2022-11-24T08:19:06.060Z,15.53
2022-11-24T08:20:10.455Z,13.55
2022-11-24T08:21:14.605Z,15.07
2022-11-24T08:22:18.080Z,13.94
2022-11-24T08:23:21.632Z,15.24
2022-11-24T08:24:25.223Z,14.18
2022-11-24T08:25:33.054Z,13.15
2022-11-24T08:26:36.605Z,13.94
2022-11-24T08:27:40.204Z,14.26
2022-11-24T08:28:44.822Z,14.78
2022-11-24T08:29:48.395Z,13.21
2022-11-24T08:35:24.014Z,14.28
2022-11-24T08:36:27.787Z,14.83
2022-11-24T08:37:32.368Z,15.15
2022-11-24T08:38:37.272Z,14.65
2022-11-24T08:39:40.750Z,14.75
2022-11-24T08:40:44.217Z,14.12
2022-11-24T08:41:47.848Z,14.15
2022-11-24T08:42:52.615Z,13.54
2022-11-24T08:43:57.438Z,13.43
2022-11-24T08:45:13.036Z,14.69
2022-11-24T08:46:08.692Z,14.15
2022-11-24T08:47:12.272Z,14.31
2022-11-24T08:48:15.759Z,15.00
2022-11-24T08:49:19.372Z,14.08
2022-11-24T08:50:24.863Z,14.32
2022-11-24T08:51:28.427Z,14.62
2022-11-24T08:52:31.956Z,13.18
2022-11-24T08:53:35.374Z,13.59
2022-11-24T08:54:40.232Z,14.39
2022-11-24T08:55:43.743Z,15.96
2022-11-24T08:56:49.019Z,14.11
2022-11-24T08:57:52.428Z,13.85
2022-11-24T08:58:56.885Z,13.73
2022-11-24T09:00:00.303Z,13.59
2022-11-24T09:01:10.171Z,14.51
2022-11-24T09:02:13.897Z,12.87
2022-11-24T09:03:17.387Z,13.22
2022-11-24T09:04:20.909Z,12.66
2022-11-24T09:05:50.785Z,12.54
2022-11-24T09:06:30.399Z,13.09
2022-11-24T09:07:33.983Z,12.90
2022-11-24T09:08:38.183Z,12.78
2022-11-24T09:09:41.642Z,14.18
2022-11-24T09:10:45.058Z,13.88
2022-11-24T09:11:48.450Z,14.68
2022-11-24T09:12:51.821Z,14.21
2022-11-24T09:13:55.485Z,14.48
2022-11-24T09:14:58.869Z,14.07
2022-11-24T09:16:04.036Z,13.54
2022-11-24T09:17:07.430Z,14.06
2022-11-24T09:18:10.811Z,13.34
2022-11-24T09:19:14.265Z,12.90
2022-11-24T09:20:17.680Z,13.37
2022-11-24T09:21:21.712Z,12.82
2022-11-24T09:22:25.017Z,13.45
2022-11-24T09:23:28.437Z,13.76
2022-11-24T09:24:31.841Z,13.76
2022-11-24T09:25:35.165Z,13.56
2022-11-24T09:26:43.139Z,13.62
2022-11-24T09:27:44.175Z,12.83
2022-11-24T09:28:48.061Z,12.82
2022-11-24T09:29:51.699Z,13.85
2022-11-24T09:30:55.096Z,12.45
2022-11-24T09:32:03.490Z,11.94
2022-11-24T09:33:03.801Z,12.62
2022-11-24T09:34:10.710Z,14.56
2022-11-24T09:35:14.151Z,11.83
2022-11-24T09:36:18.097Z,13.01
2022-11-24T09:37:21.526Z,12.35
2022-11-24T09:38:25.249Z,11.88
2022-11-24T09:39:28.724Z,12.72
2022-11-24T09:40:32.628Z,13.86
2022-11-24T09:42:08.239Z,13.95
2022-11-24T09:46:10.468Z,12.82
2022-11-24T09:47:35.589Z,12.32
2022-11-24T09:48:42.495Z,15.48
2022-11-24T09:51:04.185Z,12.84
2022-11-24T09:52:12.123Z,12.73
2022-11-24T09:53:38.487Z,13.04
2022-11-24T09:54:45.354Z,13.08
2022-11-24T09:56:20.874Z,13.27
2022-11-24T09:57:26.488Z,13.33
2022-11-24T09:58:51.036Z,13.89
2022-11-24T09:59:57.671Z,13.56
2022-11-24T10:01:01.299Z,15.07
2022-11-24T10:02:08.097Z,13.51
2022-11-24T10:03:18.596Z,13.39
2022-11-24T10:04:28.141Z,14.16
2022-11-24T10:05:38.199Z,14.01
2022-11-24T10:07:03.107Z,14.07
2022-11-24T10:08:10.799Z,14.57
2022-11-24T10:09:23.403Z,15.16
2022-11-24T10:10:30.297Z,14.03
2022-11-24T10:11:48.908Z,14.80
2022-11-24T10:12:58.720Z,14.36
2022-11-24T10:14:11.674Z,15.24
2022-11-24T10:15:27.482Z,13.58
2022-11-24T10:16:55.107Z,14.37
2022-11-24T10:18:13.248Z,14.17
2022-11-24T10:19:16.979Z,14.92
2022-11-24T10:20:32.677Z,14.84
2022-11-24T10:21:57.775Z,15.82
2022-11-24T10:23:25.574Z,14.95
2022-11-24T10:24:32.353Z,15.06
2022-11-24T10:25:41.973Z,15.21
2022-11-24T10:26:54.812Z,15.35
2022-11-24T10:28:07.162Z,15.36
2022-11-24T10:29:17.045Z,14.18
2022-11-24T10:30:23.374Z,14.28
2022-11-24T10:31:33.392Z,13.89
2022-11-24T10:32:39.688Z,13.09
2022-11-24T10:33:43.622Z,12.95
2022-11-24T10:34:50.069Z,12.12
2022-11-24T10:35:59.690Z,11.94
2022-11-24T10:37:15.581Z,11.82
2022-11-24T10:38:31.591Z,12.54
2022-11-24T10:40:03.996Z,12.37
2022-11-24T10:41:10.206Z,12.61
2022-11-24T10:42:31.728Z,12.01
2022-11-24T10:43:35.008Z,11.58
2022-11-24T10:44:40.888Z,12.09
2022-11-24T10:45:44.441Z,12.49
2022-11-24T10:46:47.863Z,11.49
2022-11-24T10:47:51.060Z,12.41
2022-11-24T10:49:00.750Z,12.42
2022-11-24T10:50:19.339Z,12.83
2022-11-24T10:51:32.117Z,12.22
2022-11-24T10:52:38.984Z,13.03
2022-11-24T10:53:43.112Z,11.91
2022-11-24T10:55:01.610Z,12.41
2022-11-24T10:56:05.456Z,12.57
2022-11-24T10:57:09.229Z,13.56
2022-11-24T10:58:15.141Z,13.18
2022-11-24T10:59:31.427Z,12.62
2022-11-24T11:00:35.475Z,13.34
2022-11-24T11:01:38.789Z,13.31
2022-11-24T11:02:42.117Z,13.14
2022-11-24T11:03:54.988Z,13.22
2022-11-24T11:04:58.746Z,11.99
2022-11-24T11:06:05.601Z,11.08
2022-11-24T11:07:20.996Z,11.42
2022-11-24T11:08:27.480Z,10.96
2022-11-24T11:09:31.817Z,11.02
2022-11-24T11:10:35.474Z,11.06
2022-11-24T11:11:39.421Z,11.99
2022-11-24T11:12:44.235Z,11.54
2022-11-24T11:14:02.957Z,11.21
2022-11-24T11:15:21.813Z,11.64
2022-11-24T11:16:45.371Z,11.63
2022-11-24T11:17:50.013Z,12.10
2022-11-24T11:18:53.614Z,11.02
2022-11-24T11:20:02.933Z,11.50
2022-11-24T11:21:06.795Z,10.76
2022-11-24T11:22:14.093Z,11.89
2022-11-24T11:23:34.847Z,10.45
2022-11-24T11:24:39.888Z,10.57
2022-11-24T11:25:43.363Z,11.91
2022-11-24T11:26:46.693Z,10.83
2022-11-24T11:27:50.152Z,11.38
2022-11-24T11:31:33.020Z,11.37
2022-11-24T11:34:08.403Z,9.15
2022-11-24T11:35:03.332Z,10.66
2022-11-24T11:36:10.575Z,9.89
2022-11-24T11:37:15.311Z,10.18
2022-11-24T11:38:19.676Z,9.77
2022-11-24T11:40:49.585Z,10.98
2022-11-24T11:42:37.934Z,9.85
2022-11-24T11:43:30.772Z,9.94
2022-11-24T11:44:40.381Z,10.34
2022-11-24T11:45:45.732Z,10.21
2022-11-24T11:46:49.061Z,10.26
2022-11-24T11:48:02.295Z,11.19
2022-11-24T11:49:05.652Z,9.53
2022-11-24T11:50:14.157Z,9.67
2022-11-24T11:51:30.074Z,8.47
2022-11-24T11:53:03.881Z,8.49
2022-11-24T11:54:19.236Z,9.79
2022-11-24T11:55:38.158Z,10.39
2022-11-24T11:56:44.636Z,10.09
2022-11-24T11:58:06.967Z,9.27
2022-11-24T11:59:33.497Z,10.31
2022-11-24T12:00:43.185Z,10.77
2022-11-24T12:02:01.818Z,11.24
2022-11-24T12:03:24.015Z,9.73
2022-11-24T12:04:39.789Z,10.46
2022-11-24T12:05:49.527Z,10.84
2022-11-24T12:07:11.310Z,11.49
2022-11-24T12:09:18.729Z,10.12
2022-11-24T12:10:09.133Z,11.42
2022-11-24T12:11:27.721Z,11.18
2022-11-24T12:13:01.171Z,12.00
2022-11-24T12:14:22.896Z,11.21
2022-11-24T12:15:44.962Z,10.57
2022-11-24T12:16:57.631Z,10.82
2022-11-24T12:18:27.089Z,13.97
2022-11-24T12:19:31.106Z,11.27
2022-11-24T12:20:40.916Z,11.35
2022-11-24T12:22:02.900Z,12.41
2022-11-24T12:23:15.798Z,12.39
2022-11-24T12:24:38.911Z,11.97
2022-11-24T12:25:57.289Z,12.84
2022-11-24T12:27:07.234Z,11.95
2022-11-24T12:28:32.186Z,11.79
2022-11-24T12:30:12.084Z,10.42
2022-11-24T12:31:41.699Z,10.14
2022-11-24T12:33:13.426Z,10.67
2022-11-24T12:34:26.380Z,10.63
2022-11-24T12:35:43.680Z,10.35
2022-11-24T12:37:03.572Z,10.42
2022-11-24T12:38:31.203Z,9.98
2022-11-24T12:39:37.513Z,10.73
2022-11-24T12:41:18.103Z,10.61
2022-11-24T12:42:25.189Z,11.24
2022-11-24T12:43:41.274Z,10.30
2022-11-24T12:45:13.863Z,10.34
2022-11-24T12:46:32.667Z,12.00
2022-11-24T12:47:59.893Z,11.71
2022-11-24T12:49:28.647Z,11.69
2022-11-24T12:50:37.512Z,11.62
2022-11-24T12:51:44.766Z,10.59
2022-11-24T12:53:06.810Z,11.49
2022-11-24T12:54:14.503Z,11.96
2022-11-24T12:55:22.996Z,11.01
2022-11-24T12:56:30.162Z,11.75
2022-11-24T12:57:43.959Z,10.87
2022-11-24T12:59:17.250Z,12.18
2022-11-24T13:00:24.096Z,11.41
2022-11-24T13:01:55.475Z,12.14
2022-11-24T13:03:04.436Z,12.17
2022-11-24T13:04:32.046Z,12.66
2022-11-24T13:05:45.542Z,13.83
2022-11-24T13:06:55.217Z,13.75
2022-11-24T13:08:02.305Z,12.52
2022-11-24T13:09:13.346Z,16.29
2022-11-24T13:10:58.418Z,11.12
2022-11-24T13:11:43.725Z,12.35
2022-11-24T13:12:55.871Z,11.21
2022-11-24T13:14:22.136Z,11.51
2022-11-24T13:15:45.202Z,12.97
2022-11-24T13:16:37.130Z,13.06
2022-11-24T13:17:59.483Z,12.16
2022-11-24T13:18:58.438Z,11.68
2022-11-24T13:20:17.025Z,11.79
2022-11-24T13:21:50.348Z,11.99
2022-11-24T13:22:57.133Z,12.06
2022-11-24T13:24:20.494Z,11.04
2022-11-24T13:25:31.153Z,11.16
2022-11-24T23:55:59.925Z,8.67
2022-11-24T23:57:03.441Z,9.26
2022-11-24T23:58:06.982Z,8.23
2022-11-24T23:59:11.898Z,8.26
